Time,TemperatureF,DewpointF,PressureIn,WindDirection,WindDirectionDegrees,WindSpeedMPH,WindSpeedGustMPH,Humidity,HourlyPrecipIn,Conditions,Clouds,dailyrainin,SoftwareType,DateUTC
2013-11-10 00:01:00,46.8,46.8,30.32,ENE,74,0.0,0.0,100,0.00,,,0.00,VWS V13.01,2013-11-10 06:01:00,
2013-11-10 00:06:00,46.8,46.8,30.32,ENE,74,0.0,0.0,100,0.00,,,0.00,VWS V13.01,2013-11-10 06:06:00,
2013-11-10 00:11:00,46.8,46.8,30.32,ENE,74,0.0,0.0,100,0.00,,,0.00,VWS V13.01,2013-11-10 06:11:00,
2013-11-10 00:16:00,46.8,46.8,30.32,ENE,74,0.0,0.0,100,0.00,,,0.00,VWS V13.01,2013-11-10 06:16:00,
2013-11-10 00:21:00,47.0,47.0,30.32,ENE,61,0.0,0.0,100,0.00,,,0.00,VWS V13.01,2013-11-10 06:21:00,
2013-11-10 00:26:00,47.2,47.2,30.32,NE,56,0.0,0.0,100,0.00,,,0.00,VWS V13.01,2013-11-10 06:26:00,
2013-11-10 00:31:00,47.2,47.2,30.32,NE,36,0.0,0.0,100,0.00,,,0.00,VWS V13.01,2013-11-10 06:31:00,
2013-11-10 00:36:00,47.2,47.2,30.32,NE,36,0.0,0.0,100,0.00,,,0.00,VWS V13.01,2013-11-10 06:36:00,
2013-11-10 00:41:00,47.3,47.3,30.32,NE,36,0.0,0.0,100,0.00,,,0.00,VWS V13.01,2013-11-10 06:41:00,
2013-11-10 00:46:00,47.3,47.3,30.32,NE,36,0.0,0.0,100,0.00,,,0.00,VWS V13.01,2013-11-10 06:46:00,
2013-11-10 00:51:00,47.3,47.3,30.32,NE,36,0.0,0.0,100,0.00,,,0.00,VWS V13.01,2013-11-10 06:51:00,
2013-11-10 00:56:00,47.5,47.5,30.32,NE,36,0.0,0.0,100,0.00,,,0.00,VWS V13.01,2013-11-10 06:56:00,
2013-11-10 01:01:00,47.5,47.5,30.32,NE,36,0.0,0.0,100,0.00,,,0.00,VWS V13.01,2013-11-10 07:01:00,
2013-11-10 01:06:00,47.5,47.5,30.32,NE,36,0.0,0.0,100,0.00,,,0.00,VWS V13.01,2013-11-10 07:06:00,
2013-11-10 01:11:00,47.7,47.7,30.32,NE,36,0.0,0.0,100,0.00,,,0.00,VWS V13.01,2013-11-10 07:11:00,
2013-11-10 01:16:00,47.7,47.7,30.32,NE,36,0.0,0.0,100,0.00,,,0.00,VWS V13.01,2013-11-10 07:16:00,
2013-11-10 01:21:00,47.7,47.7,30.32,NE,36,0.0,0.0,100,0.00,,,0.00,VWS V13.01,2013-11-10 07:21:00,
2013-11-10 01:26:00,47.7,47.7,30.32,South,173,0.0,0.0,100,0.00,,,0.00,VWS V13.01,2013-11-10 07:26:00,
2013-11-10 01:31:00,47.7,47.7,30.32,South,173,0.0,0.0,100,0.00,,,0.00,VWS V13.01,2013-11-10 07:31:00,
2013-11-10 01:36:00,47.7,47.7,30.32,South,173,0.0,0.0,100,0.00,,,0.00,VWS V13.01,2013-11-10 07:36:00,
2013-11-10 01:41:00,47.5,47.5,30.32,South,173,0.0,0.0,100,0.00,,,0.00,VWS V13.01,2013-11-10 07:41:00,
2013-11-10 01:46:00,47.5,47.5,30.32,South,173,0.0,0.0,100,0.00,,,0.00,VWS V13.01,2013-11-10 07:46:00,
2013-11-10 01:51:00,47.5,47.5,30.32,South,173,0.0,0.0,100,0.00,,,0.00,VWS V13.01,2013-11-10 07:51:00,
2013-11-10 01:56:00,47.5,47.5,30.32,West,274,0.0,0.0,100,0.00,,,0.00,VWS V13.01,2013-11-10 07:56:00,
2013-11-10 02:01:00,47.5,47.5,30.32,NW,316,0.0,0.0,100,0.00,,,0.00,VWS V13.01,2013-11-10 08:01:00,
2013-11-10 02:06:00,47.5,47.5,30.32,NW,316,0.0,0.0,100,0.00,,,0.00,VWS V13.01,2013-11-10 08:06:00,
2013-11-10 02:11:00,47.5,47.5,30.35,NW,316,0.0,0.0,100,0.00,,,0.00,VWS V13.01,2013-11-10 08:11:00,
2013-11-10 02:16:00,47.5,47.5,30.35,NW,316,0.0,0.0,100,0.00,,,0.00,VWS V13.01,2013-11-10 08:16:00,
2013-11-10 02:21:00,47.5,47.5,30.35,NW,316,0.0,0.0,100,0.00,,,0.00,VWS V13.01,2013-11-10 08:21:00,
2013-11-10 02:26:00,47.3,47.3,30.32,NW,316,0.0,0.0,100,0.00,,,0.00,VWS V13.01,2013-11-10 08:26:00,
2013-11-10 02:31:00,47.3,47.3,30.32,NW,316,0.0,0.0,100,0.00,,,0.00,VWS V13.01,2013-11-10 08:31:00,
2013-11-10 02:36:00,47.3,47.3,30.32,NW,316,0.0,0.0,100,0.00,,,0.00,VWS V13.01,2013-11-10 08:36:00,
2013-11-10 02:41:00,47.5,47.5,30.35,NW,316,0.0,0.0,100,0.00,,,0.00,VWS V13.01,2013-11-10 08:41:00,
2013-11-10 02:46:00,47.5,47.5,30.35,NW,316,0.0,0.0,100,0.00,,,0.00,VWS V13.01,2013-11-10 08:46:00,
2013-11-10 02:51:00,47.5,47.5,30.35,NW,316,0.0,0.0,100,0.00,,,0.00,VWS V13.01,2013-11-10 08:51:00,
2013-11-10 02:56:00,47.7,47.7,30.35,NW,316,0.0,0.0,100,0.00,,,0.00,VWS V13.01,2013-11-10 08:56:00,
2013-11-10 03:01:00,47.7,47.7,30.35,NW,316,0.0,0.0,100,0.00,,,0.00,VWS V13.01,2013-11-10 09:01:00,
2013-11-10 03:06:00,47.7,47.7,30.35,NW,316,0.0,0.0,100,0.00,,,0.00,VWS V13.01,2013-11-10 09:06:00,
2013-11-10 03:11:00,47.7,47.7,30.32,NW,316,0.0,0.0,100,0.00,,,0.00,VWS V13.01,2013-11-10 09:11:00,
2013-11-10 03:16:00,47.7,47.7,30.32,NW,316,0.0,0.0,100,0.00,,,0.00,VWS V13.01,2013-11-10 09:16:00,
2013-11-10 03:21:00,47.7,47.7,30.32,NW,316,0.0,0.0,100,0.00,,,0.00,VWS V13.01,2013-11-10 09:21:00,
2013-11-10 03:26:00,47.5,47.5,30.35,NW,316,0.0,0.0,100,0.00,,,0.00,VWS V13.01,2013-11-10 09:26:00,
2013-11-10 03:31:00,47.5,47.5,30.35,NW,316,0.0,0.0,100,0.00,,,0.00,VWS V13.01,2013-11-10 09:31:00,
2013-11-10 03:36:00,47.3,47.3,30.35,NW,316,0.0,0.0,100,0.00,,,0.00,VWS V13.01,2013-11-10 09:36:00,
2013-11-10 03:41:00,47.2,47.2,30.35,NW,316,0.0,0.0,100,0.00,,,0.00,VWS V13.01,2013-11-10 09:41:00,
2013-11-10 03:46:00,47.2,47.2,30.35,NW,316,0.0,0.0,100,0.00,,,0.00,VWS V13.01,2013-11-10 09:46:00,
2013-11-10 03:51:00,47.0,47.0,30.35,NW,316,0.0,0.0,100,0.00,,,0.00,VWS V13.01,2013-11-10 09:51:00,
2013-11-10 03:56:00,47.0,47.0,30.35,NW,316,0.0,0.0,100,0.00,,,0.00,VWS V13.01,2013-11-10 09:56:00,
2013-11-10 04:01:00,47.0,47.0,30.35,NW,316,0.0,0.0,100,0.00,,,0.00,VWS V13.01,2013-11-10 10:01:00,
2013-11-10 04:06:00,47.0,47.0,30.35,NW,316,0.0,0.0,100,0.00,,,0.00,VWS V13.01,2013-11-10 10:06:00,
2013-11-10 04:11:00,47.0,47.0,30.35,NW,316,0.0,0.0,100,0.00,,,0.00,VWS V13.01,2013-11-10 10:11:00,
2013-11-10 04:16:00,47.0,47.0,30.35,NW,316,0.0,0.0,100,0.00,,,0.00,VWS V13.01,2013-11-10 10:16:00,
2013-11-10 04:21:00,46.8,46.8,30.35,NW,316,0.0,0.0,100,0.00,,,0.00,VWS V13.01,2013-11-10 10:21:00,
2013-11-10 04:26:00,46.8,46.8,30.35,NW,316,0.0,0.0,100,0.00,,,0.00,VWS V13.01,2013-11-10 10:26:00,
2013-11-10 04:31:00,46.8,46.8,30.35,NW,316,0.0,0.0,100,0.00,,,0.00,VWS V13.01,2013-11-10 10:31:00,
2013-11-10 04:36:00,46.8,46.8,30.35,NW,316,0.0,0.0,100,0.00,,,0.00,VWS V13.01,2013-11-10 10:36:00,
2013-11-10 04:41:00,46.6,46.6,30.35,NW,316,0.0,0.0,100,0.00,,,0.00,VWS V13.01,2013-11-10 10:41:00,
2013-11-10 04:46:00,46.6,46.6,30.35,NW,316,0.0,0.0,100,0.00,,,0.00,VWS V13.01,2013-11-10 10:46:00,
2013-11-10 04:51:00,46.6,46.6,30.35,NW,316,0.0,0.0,100,0.00,,,0.00,VWS V13.01,2013-11-10 10:51:00,
2013-11-10 04:56:00,46.6,46.6,30.35,NW,316,0.0,0.0,100,0.00,,,0.00,VWS V13.01,2013-11-10 10:56:00,
2013-11-10 05:01:00,46.6,46.6,30.35,NW,316,0.0,0.0,100,0.00,,,0.00,VWS V13.01,2013-11-10 11:01:00,
2013-11-10 05:05:00,46.6,46.6,30.35,NW,316,0.0,0.0,100,0.00,,,0.00,VWS V13.01,2013-11-10 11:05:00,
2013-11-10 05:10:00,46.6,46.6,30.35,NW,316,0.0,0.0,100,0.00,,,0.00,VWS V13.01,2013-11-10 11:10:00,
2013-11-10 05:15:00,46.6,46.6,30.35,NW,316,0.0,0.0,100,0.00,,,0.00,VWS V13.01,2013-11-10 11:15:00,
2013-11-10 05:20:00,46.4,46.4,30.35,NW,316,0.0,0.0,100,0.00,,,0.00,VWS V13.01,2013-11-10 11:20:00,
2013-11-10 05:25:00,46.4,46.4,30.35,NW,316,0.0,0.0,100,0.00,,,0.00,VWS V13.01,2013-11-10 11:25:00,
2013-11-10 05:30:00,46.4,46.4,30.35,NW,316,0.0,0.0,100,0.00,,,0.00,VWS V13.01,2013-11-10 11:30:00,
2013-11-10 05:35:00,46.4,46.4,30.35,NW,316,0.0,0.0,100,0.00,,,0.00,VWS V13.01,2013-11-10 11:35:00,
2013-11-10 05:40:00,46.3,46.3,30.35,NW,316,0.0,0.0,100,0.00,,,0.00,VWS V13.01,2013-11-10 11:40:00,
2013-11-10 05:45:00,45.9,45.9,30.35,NW,316,0.0,0.0,100,0.00,,,0.00,VWS V13.01,2013-11-10 11:45:00,
2013-11-10 05:50:00,45.7,45.7,30.35,NW,316,0.0,0.0,100,0.00,,,0.00,VWS V13.01,2013-11-10 11:50:00,
2013-11-10 05:55:00,45.5,45.5,30.35,NW,316,0.0,0.0,100,0.00,,,0.00,VWS V13.01,2013-11-10 11:55:00,
2013-11-10 06:00:00,45.5,45.5,30.35,NW,316,0.0,0.0,100,0.00,,,0.00,VWS V13.01,2013-11-10 12:00:00,
2013-11-10 06:05:00,45.4,45.4,30.35,NW,316,0.0,0.0,100,0.00,,,0.00,VWS V13.01,2013-11-10 12:05:00,
2013-11-10 06:10:00,45.4,45.4,30.38,NW,316,0.0,0.0,100,0.00,,,0.00,VWS V13.01,2013-11-10 12:10:00,
2013-11-10 06:16:00,45.2,45.2,30.38,NW,316,0.0,0.0,100,0.00,,,0.00,VWS V13.01,2013-11-10 12:16:00,
2013-11-10 06:21:00,45.0,45.0,30.38,NW,316,0.0,0.0,100,0.00,,,0.00,VWS V13.01,2013-11-10 12:21:00,
2013-11-10 06:26:00,44.6,44.6,30.38,NW,316,0.0,0.0,100,0.00,,,0.00,VWS V13.01,2013-11-10 12:26:00,
2013-11-10 06:31:00,44.8,44.8,30.38,NW,316,0.0,0.0,100,0.00,,,0.00,VWS V13.01,2013-11-10 12:31:00,
2013-11-10 06:35:00,44.6,44.6,30.38,North,358,0.0,0.0,100,0.00,,,0.00,VWS V13.01,2013-11-10 12:35:00,
2013-11-10 06:40:00,44.5,44.5,30.38,North,358,0.0,0.0,100,0.00,,,0.00,VWS V13.01,2013-11-10 12:40:00,
2013-11-10 06:45:00,44.3,44.3,30.38,North,358,0.0,0.0,100,0.00,,,0.00,VWS V13.01,2013-11-10 12:45:00,
2013-11-10 06:50:00,44.1,44.1,30.38,North,358,0.0,0.0,100,0.00,,,0.00,VWS V13.01,2013-11-10 12:50:00,
2013-11-10 06:55:00,43.9,43.9,30.38,North,358,0.0,0.0,100,0.00,,,0.00,VWS V13.01,2013-11-10 12:55:00,
2013-11-10 07:00:00,43.9,43.9,30.38,North,358,0.0,0.0,100,0.00,,,0.00,VWS V13.01,2013-11-10 13:00:00,
2013-11-10 07:05:00,43.9,43.9,30.38,North,358,0.0,0.0,100,0.00,,,0.00,VWS V13.01,2013-11-10 13:05:00,
2013-11-10 07:10:00,44.1,44.1,30.38,North,358,0.0,0.0,100,0.00,,,0.00,VWS V13.01,2013-11-10 13:10:00,
2013-11-10 07:15:00,44.1,44.1,30.38,North,358,0.0,0.0,100,0.00,,,0.00,VWS V13.01,2013-11-10 13:15:00,
2013-11-10 07:20:00,44.1,44.1,30.38,North,358,0.0,0.0,100,0.00,,,0.00,VWS V13.01,2013-11-10 13:20:00,
2013-11-10 07:25:00,44.1,44.1,30.38,North,358,0.0,0.0,100,0.00,,,0.00,VWS V13.01,2013-11-10 13:25:00,
2013-11-10 07:30:00,44.1,44.1,30.41,North,358,0.0,0.0,100,0.00,,,0.00,VWS V13.01,2013-11-10 13:30:00,
2013-11-10 07:35:00,44.1,44.1,30.41,North,358,0.0,0.0,100,0.00,,,0.00,VWS V13.01,2013-11-10 13:35:00,
2013-11-10 07:40:00,44.3,44.3,30.41,North,358,0.0,0.0,100,0.00,,,0.00,VWS V13.01,2013-11-10 13:40:00,
2013-11-10 07:45:00,44.8,44.8,30.41,North,358,0.0,0.0,100,0.00,,,0.00,VWS V13.01,2013-11-10 13:45:00,
2013-11-10 07:50:00,45.2,45.2,30.41,North,358,0.0,0.0,100,0.00,,,0.00,VWS V13.01,2013-11-10 13:50:00,
2013-11-10 07:55:00,46.1,46.1,30.41,North,358,0.0,0.0,100,0.00,,,0.00,VWS V13.01,2013-11-10 13:55:00,
2013-11-10 08:00:00,47.2,47.2,30.41,NNE,14,0.0,0.0,100,0.00,,,0.00,VWS V13.01,2013-11-10 14:00:00,
2013-11-10 08:05:00,47.9,47.9,30.41,NNE,14,0.0,0.0,100,0.00,,,0.00,VWS V13.01,2013-11-10 14:05:00,
2013-11-10 08:10:00,48.4,48.4,30.41,NNE,14,0.0,0.0,100,0.00,,,0.00,VWS V13.01,2013-11-10 14:10:00,
2013-11-10 08:15:00,49.3,49.3,30.41,NNE,14,0.0,0.0,100,0.00,,,0.00,VWS V13.01,2013-11-10 14:15:00,
2013-11-10 08:20:00,49.7,49.7,30.41,NNW,348,0.0,0.0,100,0.00,,,0.00,VWS V13.01,2013-11-10 14:20:00,
2013-11-10 08:25:00,50.2,50.2,30.41,NNW,348,0.0,0.0,100,0.00,,,0.00,VWS V13.01,2013-11-10 14:25:00,
2013-11-10 08:30:00,50.6,50.6,30.41,North,357,0.0,0.0,100,0.00,,,0.00,VWS V13.01,2013-11-10 14:30:00,
2013-11-10 08:35:00,50.8,50.8,30.41,North,357,0.0,0.0,100,0.00,,,0.00,VWS V13.01,2013-11-10 14:35:00,
2013-11-10 08:40:00,51.1,51.1,30.41,North,357,0.0,0.0,100,0.00,,,0.00,VWS V13.01,2013-11-10 14:40:00,
2013-11-10 08:45:00,51.3,51.3,30.41,North,357,0.0,0.0,100,0.00,,,0.00,VWS V13.01,2013-11-10 14:45:00,
2013-11-10 08:50:00,51.5,51.5,30.41,North,357,0.0,0.0,100,0.00,,,0.00,VWS V13.01,2013-11-10 14:50:00,
2013-11-10 08:55:00,51.7,51.7,30.41,North,357,0.0,0.0,100,0.00,,,0.00,VWS V13.01,2013-11-10 14:55:00,
2013-11-10 09:01:00,52.0,52.0,30.41,North,357,0.0,0.0,100,0.00,,,0.00,VWS V13.01,2013-11-10 15:01:00,
2013-11-10 09:06:00,52.2,52.2,30.41,WSW,248,0.0,0.0,100,0.00,,,0.00,VWS V13.01,2013-11-10 15:06:00,
2013-11-10 09:11:00,52.2,52.2,30.41,WSW,240,3.1,3.6,100,0.00,,,0.00,VWS V13.01,2013-11-10 15:11:00,
2013-11-10 09:16:00,52.2,52.2,30.44,WSW,250,0.0,2.7,100,0.00,,,0.00,VWS V13.01,2013-11-10 15:16:00,
2013-11-10 09:21:00,52.4,52.4,30.44,WSW,252,2.7,2.7,100,0.00,,,0.00,VWS V13.01,2013-11-10 15:21:00,
2013-11-10 09:26:00,52.6,52.6,30.44,SW,236,2.2,2.2,100,0.00,,,0.00,VWS V13.01,2013-11-10 15:26:00,
2013-11-10 09:31:00,52.7,52.7,30.44,SSE,168,3.1,3.1,100,0.00,,,0.00,VWS V13.01,2013-11-10 15:31:00,
2013-11-10 09:36:00,53.1,53.1,30.44,South,184,2.7,2.7,100,0.00,,,0.00,VWS V13.01,2013-11-10 15:36:00,
2013-11-10 09:40:00,53.3,52.5,30.44,South,171,2.7,3.1,97,0.00,,,0.00,VWS V13.01,2013-11-10 15:40:00,
2013-11-10 09:45:00,53.8,53.3,30.44,South,171,0.0,0.0,98,0.00,,,0.00,VWS V13.01,2013-11-10 15:45:00,
2013-11-10 09:50:00,54.2,53.3,30.44,SW,232,0.0,0.0,97,0.00,,,0.00,VWS V13.01,2013-11-10 15:50:00,
2013-11-10 09:55:00,54.5,53.4,30.44,SW,232,0.0,0.0,96,0.00,,,0.00,VWS V13.01,2013-11-10 15:55:00,
2013-11-10 10:00:00,55.1,53.1,30.44,South,184,0.0,0.0,93,0.00,,,0.00,VWS V13.01,2013-11-10 16:00:00,
2013-11-10 10:05:00,55.3,52.7,30.44,WSW,252,0.0,0.0,91,0.00,,,0.00,VWS V13.01,2013-11-10 16:05:00,
2013-11-10 10:10:00,55.4,50.4,30.44,WSW,257,0.0,0.0,83,0.00,,,0.00,VWS V13.01,2013-11-10 16:10:00,
2013-11-10 10:15:00,55.8,51.4,30.44,WSW,257,0.0,0.0,85,0.00,,,0.00,VWS V13.01,2013-11-10 16:15:00,
2013-11-10 10:20:00,56.2,50.8,30.44,WSW,257,0.0,0.0,82,0.00,,,0.00,VWS V13.01,2013-11-10 16:20:00,
2013-11-10 10:25:00,56.7,50.9,30.44,WSW,257,0.0,0.0,81,0.00,,,0.00,VWS V13.01,2013-11-10 16:25:00,
2013-11-10 10:30:00,57.1,50.3,30.44,South,176,0.0,0.0,78,0.00,,,0.00,VWS V13.01,2013-11-10 16:30:00,
2013-11-10 10:35:00,57.4,49.9,30.44,South,184,0.0,0.0,76,0.00,,,0.00,VWS V13.01,2013-11-10 16:35:00,
2013-11-10 10:40:00,58.0,49.4,30.44,WNW,285,0.0,0.0,73,0.00,,,0.00,VWS V13.01,2013-11-10 16:40:00,
2013-11-10 10:45:00,58.5,49.1,30.41,West,275,0.0,0.0,71,0.00,,,0.00,VWS V13.01,2013-11-10 16:45:00,
2013-11-10 10:50:00,59.0,50.0,30.41,NNE,30,2.7,3.6,72,0.00,,,0.00,VWS V13.01,2013-11-10 16:50:00,
2013-11-10 10:55:00,60.5,47.8,30.41,NNE,30,2.7,2.7,63,0.00,,,0.00,VWS V13.01,2013-11-10 16:55:00,
2013-11-10 11:00:00,61.4,48.3,30.41,ESE,117,2.7,3.1,62,0.00,,,0.00,VWS V13.01,2013-11-10 17:00:00,
2013-11-10 11:05:00,62.1,46.2,30.41,ENE,70,5.4,5.4,56,0.00,,,0.00,VWS V13.01,2013-11-10 17:05:00,
2013-11-10 11:10:00,63.0,47.5,30.41,SE,124,2.7,5.8,57,0.00,,,0.00,VWS V13.01,2013-11-10 17:10:00,
2013-11-10 11:15:00,63.5,47.6,30.41,East,88,0.0,3.1,56,0.00,,,0.00,VWS V13.01,2013-11-10 17:15:00,
2013-11-10 11:20:00,64.4,48.4,30.41,ESE,103,3.6,3.6,56,0.00,,,0.00,VWS V13.01,2013-11-10 17:20:00,
2013-11-10 11:25:00,65.2,47.1,30.41,ENE,58,5.4,5.4,52,0.00,,,0.00,VWS V13.01,2013-11-10 17:25:00,
2013-11-10 11:30:00,65.0,47.0,30.41,NE,45,3.1,3.6,52,0.00,,,0.00,VWS V13.01,2013-11-10 17:30:00,
2013-11-10 11:35:00,65.2,47.1,30.41,NE,35,5.4,5.8,52,0.00,,,0.00,VWS V13.01,2013-11-10 17:35:00,
2013-11-10 11:40:00,65.5,47.5,30.41,East,86,2.7,3.6,52,0.00,,,0.00,VWS V13.01,2013-11-10 17:40:00,
2013-11-10 11:45:00,65.7,47.1,30.41,NE,56,3.6,4.0,51,0.00,,,0.00,VWS V13.01,2013-11-10 17:45:00,
2013-11-10 11:50:00,65.7,47.1,30.41,ENE,67,5.4,6.3,51,0.00,,,0.00,VWS V13.01,2013-11-10 17:50:00,
2013-11-10 11:55:00,65.5,46.9,30.41,NNE,29,4.0,4.0,51,0.00,,,0.00,VWS V13.01,2013-11-10 17:55:00,
2013-11-10 12:00:00,65.2,46.6,30.41,North,10,3.1,3.1,51,0.00,,,0.00,VWS V13.01,2013-11-10 18:00:00,
2013-11-10 12:05:00,65.0,46.4,30.41,North,354,0.0,2.7,51,0.00,,,0.00,VWS V13.01,2013-11-10 18:05:00,
2013-11-10 12:10:00,65.2,46.6,30.41,WNW,293,0.0,2.7,51,0.00,,,0.00,VWS V13.01,2013-11-10 18:10:00,
2013-11-10 12:15:00,65.2,46.6,30.38,SE,132,3.6,4.9,51,0.00,,,0.00,VWS V13.01,2013-11-10 18:15:00,
2013-11-10 12:20:00,65.2,46.6,30.38,NE,52,3.1,3.1,51,0.00,,,0.00,VWS V13.01,2013-11-10 18:20:00,
2013-11-10 12:25:00,65.3,46.8,30.38,ENE,57,0.0,0.0,51,0.00,,,0.00,VWS V13.01,2013-11-10 18:25:00,
2013-11-10 12:30:00,65.2,46.6,30.38,SE,129,5.8,6.3,51,0.00,,,0.00,VWS V13.01,2013-11-10 18:30:00,
2013-11-10 12:35:00,65.0,46.4,30.38,ESE,102,3.1,4.5,51,0.00,,,0.00,VWS V13.01,2013-11-10 18:35:00,
2013-11-10 12:40:00,65.2,46.6,30.38,ENE,73,5.4,6.3,51,0.00,,,0.00,VWS V13.01,2013-11-10 18:40:00,
2013-11-10 12:45:00,65.3,46.8,30.38,ENE,60,2.7,4.9,51,0.00,,,0.00,VWS V13.01,2013-11-10 18:45:00,
2013-11-10 12:50:00,65.3,46.8,30.38,NE,56,4.0,4.0,51,0.00,,,0.00,VWS V13.01,2013-11-10 18:50:00,
2013-11-10 12:55:00,65.7,47.1,30.38,ESE,110,5.4,5.4,51,0.00,,,0.00,VWS V13.01,2013-11-10 18:55:00,
2013-11-10 13:00:00,65.7,47.1,30.38,ESE,119,2.2,2.2,51,0.00,,,0.00,VWS V13.01,2013-11-10 19:00:00,
2013-11-10 13:05:00,66.4,47.8,30.38,ENE,71,6.3,6.3,51,0.00,,,0.00,VWS V13.01,2013-11-10 19:05:00,
2013-11-10 13:10:00,66.2,47.6,30.38,East,90,6.3,6.3,51,0.00,,,0.00,VWS V13.01,2013-11-10 19:10:00,
2013-11-10 13:15:00,65.7,47.1,30.38,East,88,3.6,7.6,51,0.00,,,0.00,VWS V13.01,2013-11-10 19:15:00,
2013-11-10 13:20:00,65.5,46.9,30.38,East,94,3.6,5.4,51,0.00,,,0.00,VWS V13.01,2013-11-10 19:20:00,
2013-11-10 13:25:00,65.3,46.8,30.38,SE,127,4.0,5.8,51,0.00,,,0.00,VWS V13.01,2013-11-10 19:25:00,
2013-11-10 13:30:00,65.3,46.8,30.35,East,79,4.9,6.3,51,0.00,,,0.00,VWS V13.01,2013-11-10 19:30:00,
2013-11-10 13:35:00,65.3,46.8,30.35,NE,50,3.6,3.6,51,0.00,,,0.00,VWS V13.01,2013-11-10 19:35:00,
2013-11-10 13:40:00,65.3,46.8,30.35,SE,131,4.0,5.4,51,0.00,,,0.00,VWS V13.01,2013-11-10 19:40:00,
2013-11-10 13:45:00,65.3,46.8,30.35,ESE,121,6.3,7.2,51,0.00,,,0.00,VWS V13.01,2013-11-10 19:45:00,
2013-11-10 13:50:00,65.3,46.8,30.35,East,101,5.8,6.3,51,0.00,,,0.00,VWS V13.01,2013-11-10 19:50:00,
2013-11-10 13:55:00,65.3,46.8,30.35,ENE,69,3.6,6.7,51,0.00,,,0.00,VWS V13.01,2013-11-10 19:55:00,
2013-11-10 14:00:00,65.2,46.6,30.35,NE,51,4.9,7.6,51,0.00,,,0.00,VWS V13.01,2013-11-10 20:00:00,
2013-11-10 14:05:00,65.2,46.6,30.35,ESE,114,3.1,3.1,51,0.00,,,0.00,VWS V13.01,2013-11-10 20:05:00,
2013-11-10 14:10:00,65.3,46.8,30.35,ESE,103,5.4,5.8,51,0.00,,,0.00,VWS V13.01,2013-11-10 20:10:00,
2013-11-10 14:15:00,65.3,46.8,30.35,East,88,4.9,5.8,51,0.00,,,0.00,VWS V13.01,2013-11-10 20:15:00,
2013-11-10 14:20:00,65.5,46.9,30.35,ESE,114,2.7,4.0,51,0.00,,,0.00,VWS V13.01,2013-11-10 20:20:00,
2013-11-10 14:25:00,65.9,46.7,30.35,SE,131,5.8,7.6,50,0.00,,,0.00,VWS V13.01,2013-11-10 20:25:00,
2013-11-10 14:30:00,65.5,46.9,30.35,ESE,118,3.1,6.3,51,0.00,,,0.00,VWS V13.01,2013-11-10 20:30:00,
2013-11-10 14:35:00,65.7,46.6,30.35,NE,49,2.7,4.9,50,0.00,,,0.00,VWS V13.01,2013-11-10 20:35:00,
2013-11-10 14:40:00,66.1,46.9,30.35,SSE,164,3.1,3.1,50,0.00,,,0.00,VWS V13.01,2013-11-10 20:40:00,
2013-11-10 14:45:00,65.7,45.5,30.35,ESE,114,3.1,4.0,48,0.00,,,0.00,VWS V13.01,2013-11-10 20:45:00,
2013-11-10 14:50:00,65.3,45.2,30.35,ENE,78,4.0,5.4,48,0.00,,,0.00,VWS V13.01,2013-11-10 20:50:00,
2013-11-10 14:55:00,65.2,46.6,30.35,ENE,65,3.6,3.6,51,0.00,,,0.00,VWS V13.01,2013-11-10 20:55:00,
2013-11-10 15:00:00,65.0,44.8,30.35,ENE,58,2.2,2.7,48,0.00,,,0.00,VWS V13.01,2013-11-10 21:00:00,
2013-11-10 15:05:00,64.8,46.3,30.35,ENE,68,2.2,3.1,51,0.00,,,0.00,VWS V13.01,2013-11-10 21:05:00,
2013-11-10 15:10:00,64.6,46.1,30.35,East,80,3.6,3.6,51,0.00,,,0.00,VWS V13.01,2013-11-10 21:10:00,
2013-11-10 15:15:00,65.0,46.4,30.35,ESE,111,4.0,4.0,51,0.00,,,0.00,VWS V13.01,2013-11-10 21:15:00,
2013-11-10 15:20:00,65.2,46.6,30.35,ESE,107,3.6,5.8,51,0.00,,,0.00,VWS V13.01,2013-11-10 21:20:00,
2013-11-10 15:25:00,65.0,46.4,30.35,East,88,3.6,4.0,51,0.00,,,0.00,VWS V13.01,2013-11-10 21:25:00,
2013-11-10 15:30:00,64.6,46.1,30.35,East,80,3.1,4.0,51,0.00,,,0.00,VWS V13.01,2013-11-10 21:30:00,
2013-11-10 15:35:00,64.3,45.8,30.35,ENE,73,3.6,5.4,51,0.00,,,0.00,VWS V13.01,2013-11-10 21:35:00,
2013-11-10 15:40:00,64.1,45.6,30.35,East,96,3.1,4.0,51,0.00,,,0.00,VWS V13.01,2013-11-10 21:40:00,
2013-11-10 15:45:00,63.7,45.3,30.35,East,86,2.7,5.8,51,0.00,,,0.00,VWS V13.01,2013-11-10 21:45:00,
2013-11-10 15:50:00,63.5,45.1,30.35,East,91,3.6,3.6,51,0.00,,,0.00,VWS V13.01,2013-11-10 21:50:00,
2013-11-10 15:55:00,63.4,45.5,30.35,East,80,3.1,3.1,52,0.00,,,0.00,VWS V13.01,2013-11-10 21:55:00,
2013-11-10 16:00:00,63.2,45.3,30.35,ESE,105,4.0,4.0,52,0.00,,,0.00,VWS V13.01,2013-11-10 22:00:00,
2013-11-10 16:05:00,63.0,45.1,30.35,East,79,3.1,4.0,52,0.00,,,0.00,VWS V13.01,2013-11-10 22:05:00,
2013-11-10 16:10:00,63.0,45.1,30.35,NE,44,0.0,2.2,52,0.00,,,0.00,VWS V13.01,2013-11-10 22:10:00,
2013-11-10 16:15:00,62.8,45.0,30.35,NE,44,0.0,0.0,52,0.00,,,0.00,VWS V13.01,2013-11-10 22:15:00,
2013-11-10 16:19:00,62.5,44.6,30.35,NE,44,0.0,0.0,52,0.00,,,0.00,VWS V13.01,2013-11-10 22:19:00,
2013-11-10 16:24:00,62.3,44.5,30.35,NE,44,0.0,0.0,52,0.00,,,0.00,VWS V13.01,2013-11-10 22:24:00,
2013-11-10 16:29:00,62.1,44.3,30.35,NE,44,0.0,0.0,52,0.00,,,0.00,VWS V13.01,2013-11-10 22:29:00,
2013-11-10 16:34:00,62.1,44.3,30.35,NE,44,0.0,0.0,52,0.00,,,0.00,VWS V13.01,2013-11-10 22:34:00,
2013-11-10 16:39:00,61.9,45.1,30.35,NE,35,2.2,2.2,54,0.00,,,0.00,VWS V13.01,2013-11-10 22:39:00,
2013-11-10 16:44:00,61.6,45.3,30.35,NE,35,0.0,2.2,55,0.00,,,0.00,VWS V13.01,2013-11-10 22:44:00,
2013-11-10 16:49:00,60.8,44.6,30.35,NE,35,2.2,2.2,55,0.00,,,0.00,VWS V13.01,2013-11-10 22:49:00,
2013-11-10 16:54:00,60.5,44.7,30.35,NE,35,0.0,0.0,56,0.00,,,0.00,VWS V13.01,2013-11-10 22:54:00,
2013-11-10 16:59:00,59.9,44.7,30.35,NE,35,0.0,0.0,57,0.00,,,0.00,VWS V13.01,2013-11-10 22:59:00,
2013-11-10 17:04:00,59.8,45.4,30.35,NE,35,0.0,0.0,59,0.00,,,0.00,VWS V13.01,2013-11-10 23:04:00,
2013-11-10 17:09:00,59.4,45.5,30.35,NE,35,2.7,2.7,60,0.00,,,0.00,VWS V13.01,2013-11-10 23:09:00,
2013-11-10 17:14:00,58.9,45.9,30.35,NE,35,2.7,2.7,62,0.00,,,0.00,VWS V13.01,2013-11-10 23:14:00,
2013-11-10 17:19:00,58.3,45.8,30.35,NE,35,2.2,2.2,63,0.00,,,0.00,VWS V13.01,2013-11-10 23:19:00,
2013-11-10 17:24:00,58.1,46.0,30.35,NE,35,2.7,2.7,64,0.00,,,0.00,VWS V13.01,2013-11-10 23:24:00,
2013-11-10 17:29:00,57.8,45.7,30.35,NE,35,2.2,2.2,64,0.00,,,0.00,VWS V13.01,2013-11-10 23:29:00,
2013-11-10 17:34:00,57.4,46.2,30.35,NE,35,2.2,2.2,66,0.00,,,0.00,VWS V13.01,2013-11-10 23:34:00,
2013-11-10 17:39:00,56.9,45.7,30.35,NE,35,0.0,0.0,66,0.00,,,0.00,VWS V13.01,2013-11-10 23:39:00,
2013-11-10 17:44:00,56.3,46.3,30.35,NE,35,2.2,2.2,69,0.00,,,0.00,VWS V13.01,2013-11-10 23:44:00,
2013-11-10 17:49:00,56.0,46.3,30.35,NE,35,0.0,0.0,70,0.00,,,0.00,VWS V13.01,2013-11-10 23:49:00,
2013-11-10 17:54:00,55.8,46.5,30.35,NE,35,2.2,2.2,71,0.00,,,0.00,VWS V13.01,2013-11-10 23:54:00,
2013-11-10 17:59:00,55.6,46.8,30.35,NE,35,2.2,2.2,72,0.00,,,0.00,VWS V13.01,2013-11-10 23:59:00,
2013-11-10 18:04:00,55.4,46.6,30.35,NE,35,0.0,0.0,72,0.00,,,0.00,VWS V13.01,2013-11-11 00:04:00,
2013-11-10 18:09:00,55.4,45.1,30.35,NE,35,2.2,2.2,68,0.00,,,0.00,VWS V13.01,2013-11-11 00:09:00,
2013-11-10 18:14:00,55.6,46.4,30.35,NE,35,2.2,2.2,71,0.00,,,0.00,VWS V13.01,2013-11-11 00:14:00,
2013-11-10 18:19:00,55.4,45.8,30.35,NE,35,2.2,2.2,70,0.00,,,0.00,VWS V13.01,2013-11-11 00:19:00,
2013-11-10 18:24:00,55.4,45.1,30.35,NE,35,2.2,2.2,68,0.00,,,0.00,VWS V13.01,2013-11-11 00:24:00,
2013-11-10 18:29:00,55.6,45.2,30.35,NE,35,2.2,2.2,68,0.00,,,0.00,VWS V13.01,2013-11-11 00:29:00,
2013-11-10 18:34:00,55.8,46.2,30.35,NE,35,3.1,3.1,70,0.00,,,0.00,VWS V13.01,2013-11-11 00:34:00,
2013-11-10 18:39:00,55.4,46.6,30.35,NE,35,2.2,2.2,72,0.00,,,0.00,VWS V13.01,2013-11-11 00:39:00,
2013-11-10 18:44:00,55.1,47.0,30.35,NE,35,0.0,2.2,74,0.00,,,0.00,VWS V13.01,2013-11-11 00:44:00,
2013-11-10 18:49:00,54.5,47.1,30.35,NE,35,0.0,2.7,76,0.00,,,0.00,VWS V13.01,2013-11-11 00:49:00,
2013-11-10 18:54:00,54.4,47.0,30.35,NE,35,2.2,2.2,76,0.00,,,0.00,VWS V13.01,2013-11-11 00:54:00,
2013-11-10 18:59:00,54.2,46.4,30.35,NE,53,0.0,0.0,75,0.00,,,0.00,VWS V13.01,2013-11-11 00:59:00,
2013-11-10 19:04:00,54.0,46.3,30.35,NE,53,0.0,0.0,75,0.00,,,0.00,VWS V13.01,2013-11-11 01:04:00,
2013-11-10 19:09:00,54.0,46.3,30.35,NE,53,0.0,0.0,75,0.00,,,0.00,VWS V13.01,2013-11-11 01:09:00,
2013-11-10 19:14:00,54.0,45.9,30.35,NE,53,0.0,0.0,74,0.00,,,0.00,VWS V13.01,2013-11-11 01:14:00,
2013-11-10 19:19:00,54.0,45.9,30.35,NE,53,0.0,0.0,74,0.00,,,0.00,VWS V13.01,2013-11-11 01:19:00,
2013-11-10 19:24:00,54.2,46.1,30.35,NE,53,0.0,0.0,74,0.00,,,0.00,VWS V13.01,2013-11-11 01:24:00,
2013-11-10 19:29:00,54.2,46.1,30.35,NE,53,0.0,0.0,74,0.00,,,0.00,VWS V13.01,2013-11-11 01:29:00,
2013-11-10 19:34:00,54.2,46.1,30.35,NE,53,0.0,0.0,74,0.00,,,0.00,VWS V13.01,2013-11-11 01:34:00,
2013-11-10 19:39:00,54.4,46.6,30.35,NE,53,0.0,0.0,75,0.00,,,0.00,VWS V13.01,2013-11-11 01:39:00,
2013-11-10 19:44:00,54.4,46.6,30.35,NE,53,0.0,0.0,75,0.00,,,0.00,VWS V13.01,2013-11-11 01:44:00,
2013-11-10 19:49:00,54.4,46.6,30.35,NE,53,0.0,0.0,75,0.00,,,0.00,VWS V13.01,2013-11-11 01:49:00,
2013-11-10 19:54:00,54.2,46.4,30.35,NE,53,0.0,0.0,75,0.00,,,0.00,VWS V13.01,2013-11-11 01:54:00,
2013-11-10 19:59:00,54.0,46.3,30.35,NE,53,0.0,0.0,75,0.00,,,0.00,VWS V13.01,2013-11-11 01:59:00,
2013-11-10 20:04:00,53.8,46.4,30.35,NE,53,0.0,0.0,76,0.00,,,0.00,VWS V13.01,2013-11-11 02:04:00,
2013-11-10 20:09:00,53.5,45.7,30.35,NE,53,0.0,0.0,75,0.00,,,0.00,VWS V13.01,2013-11-11 02:09:00,
2013-11-10 20:14:00,53.5,46.1,30.35,NE,53,0.0,0.0,76,0.00,,,0.00,VWS V13.01,2013-11-11 02:14:00,
2013-11-10 20:19:00,53.3,46.3,30.35,NE,53,0.0,0.0,77,0.00,,,0.00,VWS V13.01,2013-11-11 02:19:00,
2013-11-10 20:24:00,53.1,45.8,30.35,NE,53,0.0,0.0,76,0.00,,,0.00,VWS V13.01,2013-11-11 02:24:00,
2013-11-10 20:29:00,53.3,46.3,30.35,NE,53,0.0,0.0,77,0.00,,,0.00,VWS V13.01,2013-11-11 02:29:00,
2013-11-10 20:34:00,53.1,47.1,30.35,NE,53,0.0,0.0,80,0.00,,,0.00,VWS V13.01,2013-11-11 02:34:00,
2013-11-10 20:39:00,52.7,46.8,30.35,NE,53,0.0,0.0,80,0.00,,,0.00,VWS V13.01,2013-11-11 02:39:00,
2013-11-10 20:44:00,52.4,46.4,30.35,NE,53,0.0,0.0,80,0.00,,,0.00,VWS V13.01,2013-11-11 02:44:00,
2013-11-10 20:49:00,52.0,46.0,30.35,NE,53,0.0,0.0,80,0.00,,,0.00,VWS V13.01,2013-11-11 02:49:00,
2013-11-10 20:54:00,51.5,45.8,30.35,NE,53,0.0,0.0,81,0.00,,,0.00,VWS V13.01,2013-11-11 02:54:00,
2013-11-10 20:59:00,51.1,46.1,30.35,NE,53,0.0,0.0,83,0.00,,,0.00,VWS V13.01,2013-11-11 02:59:00,
2013-11-10 21:04:00,50.9,46.6,30.35,NE,53,0.0,0.0,85,0.00,,,0.00,VWS V13.01,2013-11-11 03:04:00,
2013-11-10 21:09:00,50.6,46.2,30.35,NE,53,0.0,0.0,85,0.00,,,0.00,VWS V13.01,2013-11-11 03:09:00,
2013-11-10 21:14:00,50.2,45.9,30.35,NE,53,0.0,0.0,85,0.00,,,0.00,VWS V13.01,2013-11-11 03:14:00,
2013-11-10 21:19:00,50.0,46.0,30.35,NE,53,0.0,0.0,86,0.00,,,0.00,VWS V13.01,2013-11-11 03:19:00,
2013-11-10 21:24:00,49.9,46.2,30.35,NE,53,0.0,0.0,87,0.00,,,0.00,VWS V13.01,2013-11-11 03:24:00,
2013-11-10 21:29:00,49.9,46.5,30.35,NE,53,0.0,0.0,88,0.00,,,0.00,VWS V13.01,2013-11-11 03:29:00,
2013-11-10 21:34:00,49.7,46.3,30.35,NE,36,0.0,0.0,88,0.00,,,0.00,VWS V13.01,2013-11-11 03:34:00,
2013-11-10 21:39:00,49.7,45.7,30.35,North,354,0.0,0.0,86,0.00,,,0.00,VWS V13.01,2013-11-11 03:39:00,
2013-11-10 21:44:00,49.7,45.0,30.35,North,354,0.0,0.0,84,0.00,,,0.00,VWS V13.01,2013-11-11 03:44:00,
2013-11-10 21:49:00,49.5,44.9,30.35,North,354,0.0,0.0,84,0.00,,,0.00,VWS V13.01,2013-11-11 03:49:00,
2013-11-10 21:54:00,49.0,44.3,30.35,North,354,0.0,0.0,84,0.00,,,0.00,VWS V13.01,2013-11-11 03:54:00,
2013-11-10 21:59:00,48.6,44.6,30.35,North,354,0.0,0.0,86,0.00,,,0.00,VWS V13.01,2013-11-11 03:59:00,
2013-11-10 22:04:00,48.2,45.2,30.35,NNE,29,0.0,0.0,89,0.00,,,0.00,VWS V13.01,2013-11-11 04:04:00,
2013-11-10 22:09:00,47.9,45.1,30.35,NE,36,0.0,0.0,90,0.00,,,0.00,VWS V13.01,2013-11-11 04:09:00,
2013-11-10 22:14:00,47.5,45.3,30.35,NE,36,0.0,0.0,92,0.00,,,0.00,VWS V13.01,2013-11-11 04:14:00,
2013-11-10 22:19:00,47.2,45.2,30.35,NE,36,0.0,0.0,93,0.00,,,0.00,VWS V13.01,2013-11-11 04:19:00,
2013-11-10 22:24:00,47.0,45.6,30.35,NE,36,0.0,0.0,95,0.00,,,0.00,VWS V13.01,2013-11-11 04:24:00,
2013-11-10 22:29:00,47.0,45.9,30.35,NNE,24,0.0,0.0,96,0.00,,,0.00,VWS V13.01,2013-11-11 04:29:00,
2013-11-10 22:34:00,46.8,46.3,30.35,NNE,28,3.1,3.1,98,0.00,,,0.00,VWS V13.01,2013-11-11 04:34:00,
2013-11-10 22:39:00,46.8,46.0,30.35,NE,48,0.0,2.2,97,0.00,,,0.00,VWS V13.01,2013-11-11 04:39:00,
2013-11-10 22:43:00,46.8,45.7,30.35,NE,48,0.0,0.0,96,0.00,,,0.00,VWS V13.01,2013-11-11 04:43:00,
2013-11-10 22:48:00,46.6,45.3,30.35,NE,48,0.0,0.0,95,0.00,,,0.00,VWS V13.01,2013-11-11 04:48:00,
2013-11-10 22:53:00,46.4,45.1,30.35,NE,48,0.0,0.0,95,0.00,,,0.00,VWS V13.01,2013-11-11 04:53:00,
2013-11-10 22:58:00,46.4,45.1,30.35,NE,48,0.0,0.0,95,0.00,,,0.00,VWS V13.01,2013-11-11 04:58:00,
2013-11-10 23:01:00,46.4,45.1,30.35,NE,48,0.0,0.0,95,0.00,,,0.00,VWS V13.01,2013-11-11 05:01:00,
2013-11-10 23:06:00,46.4,45.1,30.35,NE,48,0.0,0.0,95,0.00,,,0.00,VWS V13.01,2013-11-11 05:06:00,
2013-11-10 23:11:00,46.3,44.9,30.35,NE,48,0.0,0.0,95,0.00,,,0.00,VWS V13.01,2013-11-11 05:11:00,
2013-11-10 23:16:00,46.1,44.5,30.35,NE,48,0.0,0.0,94,0.00,,,0.00,VWS V13.01,2013-11-11 05:16:00,
2013-11-10 23:21:00,45.9,44.3,30.35,NE,48,0.0,0.0,94,0.00,,,0.00,VWS V13.01,2013-11-11 05:21:00,
2013-11-10 23:26:00,45.7,44.1,30.35,NE,48,0.0,0.0,94,0.00,,,0.00,VWS V13.01,2013-11-11 05:26:00,
2013-11-10 23:31:00,45.5,44.2,30.35,NE,48,0.0,0.0,95,0.00,,,0.00,VWS V13.01,2013-11-11 05:31:00,
2013-11-10 23:36:00,45.2,44.1,30.35,NE,49,0.0,0.0,96,0.00,,,0.00,VWS V13.01,2013-11-11 05:36:00,
2013-11-10 23:41:00,45.0,44.2,30.32,NE,49,0.0,0.0,97,0.00,,,0.00,VWS V13.01,2013-11-11 05:41:00,
2013-11-10 23:46:00,44.8,44.0,30.32,NE,49,0.0,0.0,97,0.00,,,0.00,VWS V13.01,2013-11-11 05:46:00,
2013-11-10 23:51:00,44.6,43.8,30.32,NE,49,0.0,0.0,97,0.00,,,0.00,VWS V13.01,2013-11-11 05:51:00,
2013-11-10 23:56:00,44.6,43.8,30.32,NE,49,0.0,0.0,97,0.00,,,0.00,VWS V13.01,2013-11-11 05:56:00,